Sabine — UALB — position and weather

sailwx.info

Track history (hours):
 
Tides and Currents Weather Stations Pressure Air Temp Water Temp Dewpoint Dewpoint Depression Visibility Wind Speed Wind Dir Waves Ship Positions

Sabine

Last reported at 2017-Sep-22 02:00 UTC. Time now 2017-Sep-22 20:40 UTC.
Position N 37°46' E 023°42'.

Length 114 m; draft 4 m.

Type: Cargo ship. MMSI: 273320100.

Date/timePositionNaut miles runAvg speedWind from/ knotsBaromVisibWave heightAir tempDewpointWater temp
2017-Sep-22 02:00N 37°46' E 023°42'4 7.2
2017-Sep-22 01:27N 37°43' E 023°44'  
2017-Sep-18 17:02N 41°30' E 029°25'1 8.4
2017-Sep-18 16:58N 41°30' E 029°26'4 8.3
2017-Sep-18 16:30N 41°32' E 029°30'123 7.8
2017-Sep-18 00:40N 42°48' E 031°41'1 7.6
2017-Sep-18 00:29N 42°49' E 031°43'4 7.7
2017-Sep-17 23:59N 42°51' E 031°47'4 7.7
2017-Sep-17 23:30N 42°54' E 031°51'4 7.6
2017-Sep-17 23:00N 42°56' E 031°55'24 7.7
2017-Sep-17 19:53N 43°11' E 032°21'221 7.6
2017-Sep-16 15:00N 45°19' E 036°32'4 8.8
2017-Sep-16 14:30N 45°21' E 036°38'3 5.7
2017-Sep-16 14:00N 45°23' E 036°40'3 6.1
2017-Sep-16 13:30N 45°26' E 036°40'3 5.4
2017-Sep-16 13:00N 45°29' E 036°39'0 0.3
2017-Sep-16 12:30N 45°29' E 036°39'0 0.0
2017-Sep-16 11:58N 45°29' E 036°39'0 0.0
2017-Sep-16 11:24N 45°29' E 036°39'0 0.0
2017-Sep-16 10:57N 45°29' E 036°39'0 0.0
2017-Sep-16 10:27N 45°29' E 036°39'0 0.0
2017-Sep-16 09:57N 45°29' E 036°39'0 0.0
2017-Sep-16 09:29N 45°29' E 036°39'0 0.0
2017-Sep-16 08:58N 45°29' E 036°39'  
Track history (hours):
 
Tides and Currents Weather Stations Pressure Air Temp Water Temp Dewpoint Dewpoint Depression Visibility Wind Speed Wind Dir Waves Ship Positions

Sabine

Last reported at 2017-Sep-22 02:00 UTC. Time now 2017-Sep-22 20:40 UTC.
Position N 37°46' E 023°42'.

Length 114 m; draft 4 m.

Type: Cargo ship. MMSI: 273320100.

Date/timePositionNaut miles runAvg speedWind from/ knotsBaromVisibWave heightAir tempDewpointWater temp
2017-Sep-22 02:00N 37°46' E 023°42'4 7.2
2017-Sep-22 01:27N 37°43' E 023°44'  
2017-Sep-18 17:02N 41°30' E 029°25'1 8.4
2017-Sep-18 16:58N 41°30' E 029°26'4 8.3
2017-Sep-18 16:30N 41°32' E 029°30'123 7.8
2017-Sep-18 00:40N 42°48' E 031°41'1 7.6
2017-Sep-18 00:29N 42°49' E 031°43'4 7.7
2017-Sep-17 23:59N 42°51' E 031°47'4 7.7
2017-Sep-17 23:30N 42°54' E 031°51'4 7.6
2017-Sep-17 23:00N 42°56' E 031°55'24 7.7
2017-Sep-17 19:53N 43°11' E 032°21'221 7.6
2017-Sep-16 15:00N 45°19' E 036°32'4 8.8
2017-Sep-16 14:30N 45°21' E 036°38'3 5.7
2017-Sep-16 14:00N 45°23' E 036°40'3 6.1
2017-Sep-16 13:30N 45°26' E 036°40'3 5.4
2017-Sep-16 13:00N 45°29' E 036°39'0 0.3
2017-Sep-16 12:30N 45°29' E 036°39'0 0.0
2017-Sep-16 11:58N 45°29' E 036°39'0 0.0
2017-Sep-16 11:24N 45°29' E 036°39'0 0.0
2017-Sep-16 10:57N 45°29' E 036°39'0 0.0
2017-Sep-16 10:27N 45°29' E 036°39'0 0.0
2017-Sep-16 09:57N 45°29' E 036°39'0 0.0
2017-Sep-16 09:29N 45°29' E 036°39'0 0.0
2017-Sep-16 08:58N 45°29' E 036°39'  

Dump ship's entire track history